Iringa Airport


Codes: HTIR/IRI
Name: Iringa Airport
City: Nduli
Country: Tanzania
Elevation: 4678 ft.

Photos at Iringa Airport


   Photos courtesy of SpottingLog. You can add your own sightings and photos by signing up for a free trial today.



No photos found.

Weather at Iringa Airport


Time (UTC)DescriptionTempratureWindCloud coverageVisibilityPressureHumidity
16-Jun-2024 12:00Broken Clouds25°C2 mph, S63%10000m1015hPa29%
16-Jun-2024 15:00Scattered Clouds22°C9 mph, SE28%10000m1015hPa42%
16-Jun-2024 18:00Clear Sky13°C7 mph, SE6%10000m1019hPa73%
16-Jun-2024 21:00Clear Sky13°C9 mph, SE3%10000m1019hPa72%
17-Jun-2024 00:00Few Clouds15°C11 mph, SE19%10000m1018hPa63%
17-Jun-2024 03:00Clear Sky12°C7 mph, SE5%10000m1020hPa77%
17-Jun-2024 06:00Clear Sky19°C9 mph, SE3%10000m1020hPa44%
17-Jun-2024 09:00Clear Sky24°C7 mph, SE1%10000m1018hPa33%
17-Jun-2024 12:00Clear Sky26°C7 mph, SE2%10000m1014hPa28%
17-Jun-2024 15:00Clear Sky20°C9 mph, SE4%10000m1016hPa49%
17-Jun-2024 18:00Clear Sky14°C7 mph, SE2%10000m1019hPa76%
17-Jun-2024 21:00Clear Sky12°C7 mph, SE2%10000m1020hPa80%
18-Jun-2024 00:00Clear Sky14°C7 mph, SE4%10000m1018hPa69%
18-Jun-2024 03:00Clear Sky11°C7 mph, SE4%10000m1019hPa81%
18-Jun-2024 06:00Clear Sky19°C4 mph, SE5%10000m1019hPa48%
18-Jun-2024 09:00Clear Sky26°C4 mph, E3%10000m1017hPa23%
18-Jun-2024 12:00Clear Sky27°C7 mph, E2%10000m1013hPa22%
18-Jun-2024 15:00Clear Sky22°C9 mph, SE0%10000m1015hPa42%
18-Jun-2024 18:00Clear Sky14°C7 mph, SE1%10000m1019hPa75%
18-Jun-2024 21:00Clear Sky13°C7 mph, SE3%10000m1020hPa85%
19-Jun-2024 00:00Clear Sky14°C7 mph, SE5%10000m1017hPa82%
19-Jun-2024 03:00Few Clouds13°C7 mph, SE12%10000m1018hPa90%
19-Jun-2024 06:00Clear Sky21°C7 mph, SE8%10000m1018hPa56%
19-Jun-2024 09:00Clear Sky26°C7 mph, E4%10000m1016hPa37%
19-Jun-2024 12:00Clear Sky27°C9 mph, E4%10000m1013hPa35%
19-Jun-2024 15:00Few Clouds22°C9 mph, SE16%10000m1014hPa58%
19-Jun-2024 18:00Few Clouds16°C7 mph, SE11%10000m1018hPa90%
19-Jun-2024 21:00Clear Sky15°C7 mph, SE4%10000m1019hPa91%
20-Jun-2024 00:00Scattered Clouds17°C4 mph, SE29%10000m1017hPa86%
20-Jun-2024 03:00Light Rain16°C2 mph, SE99%10000m1018hPa89%
20-Jun-2024 06:00Moderate Rain17°C2 mph, SE97%10000m1020hPa91%
20-Jun-2024 09:00Light Rain17°C2 mph, SE100%10000m1020hPa88%
20-Jun-2024 12:00Light Rain22°C7 mph, SE89%10000m1016hPa64%
20-Jun-2024 15:00Light Rain20°C7 mph, SE48%10000m1017hPa72%
20-Jun-2024 18:00Light Rain17°C9 mph, SE61%10000m1020hPa79%
20-Jun-2024 21:00Light Rain17°C9 mph, SE100%10000m1020hPa76%
21-Jun-2024 00:00Overcast Clouds16°C7 mph, SE99%10000m1019hPa79%
21-Jun-2024 03:00Overcast Clouds16°C4 mph, SE99%10000m1020hPa86%
21-Jun-2024 06:00Overcast Clouds18°C7 mph, SE88%10000m1021hPa80%
21-Jun-2024 09:00Broken Clouds23°C11 mph, SE60%10000m1019hPa54%